createdAt,value
2018-04-29T00:01:46.975Z,11.57
2018-04-29T00:04:14.545Z,26.07
2018-04-29T00:06:42.103Z,10.93
2018-04-29T00:09:09.626Z,10.03
2018-04-29T00:11:37.902Z,10.37
2018-04-29T00:14:06.178Z,10.30
2018-04-29T00:16:34.450Z,10.73
2018-04-29T00:19:02.715Z,10.07
2018-04-29T00:21:30.222Z,10.20
2018-04-29T00:23:57.722Z,10.90
2018-04-29T00:26:25.213Z,11.63
2018-04-29T00:28:52.705Z,9.33
2018-04-29T00:31:20.198Z,9.53
2018-04-29T00:33:47.793Z,10.93
2018-04-29T00:36:15.281Z,9.37
2018-04-29T00:38:42.833Z,13.20
2018-04-29T00:41:10.335Z,9.43
2018-04-29T00:43:38.626Z,8.30
2018-04-29T00:46:06.753Z,9.90
2018-04-29T00:48:34.245Z,10.30
2018-04-29T00:51:02.517Z,10.60
2018-04-29T00:53:30.791Z,12.10
2018-04-29T00:55:59.080Z,11.33
2018-04-29T00:58:26.585Z,11.17
2018-04-29T01:00:54.198Z,15.53
2018-04-29T01:03:21.702Z,9.80
2018-04-29T01:05:49.207Z,10.13
2018-04-29T01:08:16.699Z,16.77
2018-04-29T01:10:44.333Z,12.63
2018-04-29T01:13:11.831Z,12.07
2018-04-29T01:15:39.323Z,9.70
2018-04-29T01:18:07.729Z,11.20
2018-04-29T01:20:35.225Z,9.77
2018-04-29T01:23:02.733Z,10.60
2018-04-29T01:25:30.275Z,8.77
2018-04-29T01:27:58.654Z,9.23
2018-04-29T01:30:26.920Z,8.73
2018-04-29T01:32:55.188Z,10.57
2018-04-29T01:35:23.456Z,8.20
2018-04-29T01:37:51.760Z,11.40
2018-04-29T01:40:19.315Z,10.57
2018-04-29T01:42:46.875Z,8.67
2018-04-29T01:45:14.393Z,8.73
2018-04-29T01:47:41.973Z,9.13
2018-04-29T01:50:10.248Z,9.33
2018-04-29T01:52:38.640Z,13.13
2018-04-29T01:55:06.129Z,8.60
2018-04-29T01:57:33.619Z,9.93
2018-04-29T02:00:01.137Z,9.50
2018-04-29T02:02:28.623Z,9.23
2018-04-29T02:04:56.210Z,8.33
2018-04-29T02:07:24.500Z,9.80
2018-04-29T02:09:52.050Z,11.63
2018-04-29T02:12:20.303Z,11.73
2018-04-29T02:14:47.816Z,12.03
2018-04-29T02:17:15.349Z,12.43
2018-04-29T02:19:42.844Z,10.93
2018-04-29T02:22:10.352Z,9.93
2018-04-29T02:24:38.616Z,9.40
2018-04-29T02:27:06.886Z,9.80
2018-04-29T02:29:35.184Z,9.50
2018-04-29T02:32:02.673Z,8.40
2018-04-29T02:34:30.173Z,9.20
2018-04-29T02:36:58.493Z,8.93
2018-04-29T02:39:26.045Z,8.53
2018-04-29T02:41:53.526Z,8.80
2018-04-29T02:44:21.038Z,9.77
2018-04-29T02:46:49.333Z,7.90
2018-04-29T02:49:17.016Z,9.10
2018-04-29T02:51:44.531Z,9.40
2018-04-29T02:54:12.018Z,8.70
2018-04-29T02:56:39.514Z,8.43
2018-04-29T02:59:07.010Z,7.90
2018-04-29T03:01:34.516Z,7.83
2018-04-29T03:04:02.015Z,8.63
2018-04-29T03:06:29.575Z,8.73
2018-04-29T03:08:57.071Z,8.93
2018-04-29T03:11:24.576Z,7.87
2018-04-29T03:13:52.845Z,8.97
2018-04-29T03:16:21.102Z,8.53
2018-04-29T03:18:48.677Z,8.37
2018-04-29T03:21:16.936Z,7.97
2018-04-29T03:23:44.436Z,9.37
2018-04-29T03:26:11.933Z,8.70
2018-04-29T03:28:39.439Z,9.03
2018-04-29T03:31:06.942Z,8.57
2018-04-29T03:33:34.425Z,8.50
2018-04-29T03:36:01.932Z,8.80
2018-04-29T03:38:29.450Z,9.13
2018-04-29T03:40:57.730Z,9.13
2018-04-29T03:43:26.110Z,9.70
2018-04-29T03:45:54.387Z,8.33
2018-04-29T03:48:21.895Z,9.90
2018-04-29T03:50:49.381Z,9.60
2018-04-29T03:53:17.642Z,9.00
2018-04-29T03:55:45.125Z,8.77
2018-04-29T03:58:25.410Z,9.40
2018-04-29T04:01:04.652Z,8.53
2018-04-29T04:03:44.253Z,8.43
2018-04-29T04:06:12.498Z,9.03
2018-04-29T04:08:39.996Z,9.43
2018-04-29T04:11:07.507Z,9.43
2018-04-29T04:13:36.493Z,8.77
2018-04-29T04:16:04.000Z,9.77
2018-04-29T04:18:31.502Z,8.93
2018-04-29T04:20:59.019Z,9.33
2018-04-29T04:23:26.514Z,9.77
2018-04-29T04:25:54.004Z,8.50
2018-04-29T04:28:22.269Z,9.07
2018-04-29T04:30:50.544Z,8.93
2018-04-29T04:33:18.842Z,9.73
2018-04-29T04:35:46.404Z,8.77
2018-04-29T04:38:13.922Z,9.07
2018-04-29T04:40:41.516Z,9.13
2018-04-29T04:43:09.076Z,8.33
2018-04-29T04:45:36.583Z,8.03
2018-04-29T04:48:04.093Z,9.20
2018-04-29T04:50:31.646Z,9.37
2018-04-29T04:52:59.147Z,8.60
2018-04-29T04:55:26.653Z,10.20
2018-04-29T04:57:54.923Z,8.10
2018-04-29T05:00:23.181Z,9.03
2018-04-29T05:02:50.687Z,9.03
2018-04-29T05:05:18.223Z,9.20
2018-04-29T05:07:45.775Z,7.87
2018-04-29T05:10:13.376Z,9.17
2018-04-29T05:12:40.871Z,9.17
2018-04-29T05:15:09.141Z,8.60
2018-04-29T05:17:36.630Z,7.73
2018-04-29T05:20:04.126Z,8.70
2018-04-29T05:22:31.661Z,9.23
2018-04-29T05:24:59.213Z,8.40
2018-04-29T05:27:26.736Z,8.80
2018-04-29T05:29:55.004Z,7.30
2018-04-29T05:32:23.265Z,8.10
2018-04-29T05:34:50.749Z,8.43
2018-04-29T05:37:19.020Z,8.30
2018-04-29T05:39:47.305Z,7.90
2018-04-29T05:42:14.813Z,7.73
2018-04-29T05:44:42.331Z,8.00
2018-04-29T05:47:09.848Z,8.10
2018-04-29T05:49:38.113Z,8.10
2018-04-29T05:52:05.620Z,7.90
2018-04-29T05:54:33.116Z,7.70
2018-04-29T05:57:00.606Z,7.27
2018-04-29T05:59:28.853Z,8.10
2018-04-29T06:01:56.363Z,7.77
2018-04-29T06:04:23.907Z,7.57
2018-04-29T06:06:51.471Z,7.70
2018-04-29T06:09:19.035Z,7.87
2018-04-29T06:11:46.588Z,7.20
2018-04-29T06:14:14.088Z,8.00
2018-04-29T06:16:41.570Z,7.13
2018-04-29T06:19:09.166Z,7.50
2018-04-29T06:21:36.665Z,6.70
2018-04-29T06:24:04.272Z,7.37
2018-04-29T06:26:31.789Z,7.23
2018-04-29T06:28:59.285Z,6.53
2018-04-29T06:31:26.799Z,6.23
2018-04-29T06:33:54.292Z,6.43
2018-04-29T06:36:22.666Z,6.83
2018-04-29T06:38:50.943Z,6.87
2018-04-29T06:41:19.194Z,6.90
2018-04-29T06:43:46.777Z,7.20
2018-04-29T06:46:14.305Z,6.80
2018-04-29T06:48:41.824Z,6.30
2018-04-29T06:51:09.347Z,6.93
2018-04-29T06:53:37.598Z,7.33
2018-04-29T06:56:05.087Z,6.70
2018-04-29T06:58:32.608Z,6.37
2018-04-29T07:01:00.099Z,6.63
2018-04-29T07:03:27.590Z,6.23
2018-04-29T07:05:55.088Z,6.90
2018-04-29T07:08:23.359Z,6.40
2018-04-29T07:10:51.628Z,7.13
2018-04-29T07:13:19.217Z,6.93
2018-04-29T07:15:46.777Z,6.50
2018-04-29T07:18:14.342Z,6.43
2018-04-29T07:20:41.837Z,6.00
2018-04-29T07:23:09.322Z,6.53
2018-04-29T07:25:37.577Z,6.53
2018-04-29T07:28:05.066Z,5.90
2018-04-29T07:30:33.336Z,6.37
2018-04-29T07:33:01.610Z,6.60
2018-04-29T07:35:29.870Z,6.10
2018-04-29T07:37:57.365Z,6.07
2018-04-29T07:40:24.870Z,6.90
2018-04-29T07:42:52.363Z,7.43
2018-04-29T07:45:19.873Z,7.90
2018-04-29T07:47:47.485Z,6.57
2018-04-29T07:50:14.965Z,8.80
2018-04-29T07:52:42.504Z,6.57
2018-04-29T07:55:10.732Z,7.23
2018-04-29T07:57:38.343Z,7.00
2018-04-29T08:00:05.841Z,7.27
2018-04-29T08:02:33.433Z,7.60
2018-04-29T08:05:01.715Z,6.60
2018-04-29T08:07:29.277Z,7.20
2018-04-29T08:10:10.237Z,6.77
2018-04-29T08:12:38.498Z,7.17
2018-04-29T08:15:06.759Z,7.70
2018-04-29T08:17:34.292Z,6.97
2018-04-29T08:20:01.824Z,7.30
2018-04-29T08:22:29.473Z,7.20
2018-04-29T08:24:57.835Z,6.77
2018-04-29T08:27:26.105Z,6.93
2018-04-29T08:29:54.358Z,6.40
2018-04-29T08:32:21.858Z,6.73
2018-04-29T08:34:49.338Z,7.20
2018-04-29T08:37:16.860Z,6.70
2018-04-29T08:39:44.360Z,7.30
2018-04-29T08:42:11.892Z,5.83
2018-04-29T08:44:39.386Z,6.30
2018-04-29T08:47:06.895Z,5.70
2018-04-29T08:49:34.381Z,6.07
2018-04-29T08:52:01.903Z,5.63
2018-04-29T08:54:29.398Z,5.90
2018-04-29T08:56:57.019Z,5.90
2018-04-29T08:59:24.574Z,6.07
2018-04-29T09:01:52.042Z,5.30
2018-04-29T09:04:19.538Z,5.10
2018-04-29T09:06:47.146Z,5.73
2018-04-29T09:09:14.670Z,6.00
2018-04-29T09:11:42.163Z,6.07
2018-04-29T09:14:09.681Z,4.67
2018-04-29T09:16:37.199Z,4.73
2018-04-29T09:19:04.720Z,4.10
2018-04-29T09:21:32.975Z,4.60
2018-04-29T09:24:00.492Z,5.10
2018-04-29T09:26:28.011Z,4.97
2018-04-29T09:28:55.498Z,4.90
2018-04-29T09:31:23.003Z,4.40
2018-04-29T09:33:50.512Z,4.10
2018-04-29T09:36:18.063Z,4.33
2018-04-29T09:38:45.600Z,4.43
2018-04-29T09:41:13.159Z,5.33
2018-04-29T09:43:40.685Z,4.57
2018-04-29T09:46:08.186Z,4.30
2018-04-29T09:48:35.776Z,4.70
2018-04-29T09:51:03.225Z,4.63
2018-04-29T09:53:30.730Z,3.80
2018-04-29T09:55:58.991Z,4.23
2018-04-29T09:58:27.255Z,3.70
2018-04-29T10:00:57.679Z,4.60
2018-04-29T10:03:25.142Z,4.10
2018-04-29T10:05:53.413Z,5.07
2018-04-29T10:08:20.908Z,4.20
2018-04-29T10:10:48.456Z,5.20
2018-04-29T10:13:16.015Z,3.77
2018-04-29T10:15:43.532Z,4.70
2018-04-29T10:18:11.029Z,4.33
2018-04-29T10:20:38.605Z,4.70
2018-04-29T10:23:06.105Z,4.70
2018-04-29T10:25:33.587Z,4.93
2018-04-29T10:28:01.866Z,4.10
2018-04-29T10:30:30.122Z,4.30
2018-04-29T10:32:57.622Z,4.57
2018-04-29T10:35:25.177Z,4.43
2018-04-29T10:37:52.708Z,4.87
2018-04-29T10:40:20.967Z,4.37
2018-04-29T10:42:49.210Z,4.67
2018-04-29T10:45:16.719Z,4.00
2018-04-29T10:47:44.210Z,5.07
2018-04-29T10:50:11.738Z,3.70
2018-04-29T10:52:39.294Z,4.27
2018-04-29T10:55:07.562Z,4.10
2018-04-29T10:57:35.812Z,4.30
2018-04-29T11:00:04.119Z,4.20
2018-04-29T11:02:31.630Z,4.90
2018-04-29T11:04:59.128Z,3.73
2018-04-29T11:07:26.654Z,5.13
2018-04-29T11:09:54.928Z,3.70
2018-04-29T11:12:22.525Z,3.70
2018-04-29T11:14:50.019Z,5.53
2018-04-29T11:17:17.515Z,4.23
2018-04-29T11:19:45.828Z,5.70
2018-04-29T11:22:13.426Z,4.97
2018-04-29T11:24:41.624Z,4.80
2018-04-29T11:27:09.916Z,4.23
2018-04-29T11:29:37.423Z,4.10
2018-04-29T11:32:04.907Z,4.43
2018-04-29T11:34:33.173Z,6.10
2018-04-29T11:37:00.682Z,4.77
2018-04-29T11:39:28.233Z,4.10
2018-04-29T11:42:06.996Z,4.37
2018-04-29T11:44:34.575Z,3.67
2018-04-29T11:47:02.834Z,3.70
2018-04-29T11:49:30.333Z,3.63
2018-04-29T11:51:57.869Z,4.00
2018-04-29T11:54:26.113Z,3.87
2018-04-29T11:56:53.611Z,4.10
2018-04-29T11:59:21.128Z,4.10
2018-04-29T12:01:48.804Z,4.20
2018-04-29T12:04:16.309Z,4.40
2018-04-29T12:06:43.831Z,4.70
2018-04-29T12:09:12.082Z,4.37
2018-04-29T12:11:39.571Z,3.80
2018-04-29T12:14:07.122Z,3.33
2018-04-29T12:16:35.399Z,4.03
2018-04-29T12:19:03.748Z,4.60
2018-04-29T12:21:31.241Z,3.30
2018-04-29T12:23:58.799Z,4.10
2018-04-29T12:26:26.285Z,4.07
2018-04-29T12:28:53.901Z,3.80
2018-04-29T12:31:22.144Z,3.53
2018-04-29T12:33:49.630Z,5.03
2018-04-29T12:36:17.906Z,3.50
2018-04-29T12:38:46.179Z,3.37
2018-04-29T12:41:14.484Z,4.17
2018-04-29T12:43:41.987Z,3.60
2018-04-29T12:46:09.570Z,4.23
2018-04-29T12:48:37.860Z,3.97
2018-04-29T12:51:05.411Z,3.70
2018-04-29T12:53:32.915Z,3.87
2018-04-29T12:56:00.441Z,3.63
2018-04-29T12:58:27.978Z,3.30
2018-04-29T13:00:56.269Z,3.90
2018-04-29T13:03:23.766Z,3.73
2018-04-29T13:05:51.367Z,3.73
2018-04-29T13:08:19.614Z,4.20
2018-04-29T13:10:47.202Z,3.67
2018-04-29T13:13:14.690Z,5.40
2018-04-29T13:15:42.198Z,4.37
2018-04-29T13:18:10.467Z,4.17
2018-04-29T13:20:38.741Z,3.70
2018-04-29T13:23:06.221Z,3.60
2018-04-29T13:25:33.783Z,3.47
2018-04-29T13:30:33.299Z,3.80
2018-04-29T13:33:00.793Z,3.10
2018-04-29T13:35:28.289Z,4.27
2018-04-29T13:37:56.564Z,3.50
2018-04-29T13:40:24.824Z,3.90
2018-04-29T13:42:52.414Z,4.53
2018-04-29T13:45:20.662Z,3.87
2018-04-29T13:47:48.164Z,3.60
2018-04-29T13:50:15.663Z,4.27
2018-04-29T13:52:43.160Z,3.80
2018-04-29T13:55:10.657Z,3.57
2018-04-29T13:57:38.204Z,4.00
2018-04-29T14:00:05.722Z,3.50
2018-04-29T14:02:33.982Z,4.00
2018-04-29T14:05:02.252Z,3.57
2018-04-29T14:07:29.746Z,3.20
2018-04-29T14:09:57.265Z,3.43
2018-04-29T14:12:24.840Z,3.83
2018-04-29T14:14:53.105Z,4.27
2018-04-29T14:17:21.391Z,4.00
2018-04-29T14:19:49.719Z,4.73
2018-04-29T14:22:17.973Z,4.20
2018-04-29T14:24:45.523Z,3.67
2018-04-29T14:27:13.013Z,4.53
2018-04-29T14:29:40.628Z,3.90
2018-04-29T14:32:08.176Z,5.23
2018-04-29T14:34:35.738Z,3.70
2018-04-29T14:37:03.311Z,4.77
2018-04-29T14:39:30.824Z,4.20
2018-04-29T14:41:58.322Z,4.60
2018-04-29T14:44:25.860Z,4.73
2018-04-29T14:46:53.373Z,3.93
2018-04-29T14:49:21.010Z,3.90
2018-04-29T14:51:48.497Z,4.60
2018-04-29T14:54:16.772Z,4.37
2018-04-29T14:56:44.262Z,4.17
2018-04-29T14:59:12.563Z,4.20
2018-04-29T15:01:40.053Z,4.17
2018-04-29T15:04:07.556Z,4.00
2018-04-29T15:06:35.111Z,5.53
2018-04-29T15:09:02.619Z,4.33
2018-04-29T15:11:30.142Z,4.40
2018-04-29T15:13:57.684Z,3.60
2018-04-29T15:16:25.193Z,4.63
2018-04-29T15:18:59.767Z,4.00
2018-04-29T15:21:27.269Z,3.70
2018-04-29T15:23:54.862Z,4.63
2018-04-29T15:26:23.141Z,3.83
2018-04-29T15:28:51.423Z,3.80
2018-04-29T15:31:19.005Z,3.83
2018-04-29T15:33:46.502Z,3.97
2018-04-29T15:36:14.004Z,4.20
2018-04-29T15:38:41.575Z,4.30
2018-04-29T15:41:09.090Z,3.33
2018-04-29T15:43:37.366Z,4.00
2018-04-29T15:46:05.664Z,4.03
2018-04-29T15:48:33.206Z,4.30
2018-04-29T15:51:01.469Z,3.77
2018-04-29T15:53:29.765Z,5.20
2018-04-29T15:55:58.025Z,4.37
2018-04-29T15:58:26.319Z,4.23
2018-04-29T16:00:53.818Z,3.77
2018-04-29T16:03:21.373Z,4.30
2018-04-29T16:05:48.912Z,3.90
2018-04-29T16:08:16.408Z,4.53
2018-04-29T16:10:44.012Z,3.93
2018-04-29T16:13:11.520Z,4.57
2018-04-29T16:15:39.029Z,3.80
2018-04-29T16:18:06.562Z,3.90
2018-04-29T16:20:34.973Z,3.60
2018-04-29T16:23:02.497Z,3.50
2018-04-29T16:25:41.860Z,3.43
2018-04-29T16:28:09.345Z,3.70
2018-04-29T16:30:38.547Z,4.10
2018-04-29T16:33:06.042Z,3.10
2018-04-29T16:35:33.590Z,3.90
2018-04-29T16:38:01.945Z,3.20
2018-04-29T16:40:29.432Z,3.20
2018-04-29T16:42:56.936Z,3.60
2018-04-29T16:45:24.557Z,4.97
2018-04-29T16:47:52.136Z,3.70
2018-04-29T16:50:20.330Z,3.63
2018-04-29T16:52:47.838Z,4.27
2018-04-29T16:55:15.511Z,3.70
2018-04-29T16:57:42.997Z,4.10
2018-04-29T17:00:10.632Z,3.27
2018-04-29T17:02:38.119Z,3.63
2018-04-29T17:05:05.821Z,3.23
2018-04-29T17:07:33.342Z,3.10
2018-04-29T17:10:00.840Z,3.47
2018-04-29T17:12:28.317Z,3.53
2018-04-29T17:14:55.816Z,2.97
2018-04-29T17:17:23.320Z,5.20
2018-04-29T17:19:50.816Z,3.40
2018-04-29T17:22:18.319Z,2.83
2018-04-29T17:24:45.801Z,2.70
2018-04-29T17:27:13.337Z,3.00
2018-04-29T17:29:40.833Z,3.30
2018-04-29T17:32:08.442Z,3.47
2018-04-29T17:34:36.019Z,2.87
2018-04-29T17:37:03.550Z,2.97
2018-04-29T17:39:31.829Z,3.20
2018-04-29T17:42:00.095Z,3.00
2018-04-29T17:44:28.357Z,3.10
2018-04-29T17:46:55.861Z,3.63
2018-04-29T17:49:23.361Z,3.03
2018-04-29T17:51:50.969Z,3.10
2018-04-29T17:54:18.554Z,3.43
2018-04-29T17:56:46.055Z,3.60
2018-04-29T17:59:14.443Z,3.60
2018-04-29T18:01:41.965Z,3.10
2018-04-29T18:04:10.970Z,3.43
2018-04-29T18:06:39.222Z,2.83
2018-04-29T18:09:06.718Z,3.00
2018-04-29T18:11:34.207Z,2.23
2018-04-29T18:14:01.708Z,2.60
2018-04-29T18:16:29.212Z,3.00
2018-04-29T18:18:56.720Z,3.13
2018-04-29T18:21:24.228Z,3.17
2018-04-29T18:23:51.760Z,2.73
2018-04-29T18:26:20.010Z,3.33
2018-04-29T18:28:48.257Z,3.80
2018-04-29T18:31:15.854Z,2.43
2018-04-29T18:33:44.103Z,3.13
2018-04-29T18:36:11.665Z,2.50
2018-04-29T18:38:39.241Z,2.80
2018-04-29T18:41:07.526Z,3.53
2018-04-29T18:43:35.016Z,3.93
2018-04-29T18:46:02.543Z,3.40
2018-04-29T18:48:30.131Z,3.40
2018-04-29T18:50:57.797Z,3.30
2018-04-29T18:53:25.935Z,2.90
2018-04-29T18:55:53.492Z,3.10
2018-04-29T18:58:21.003Z,3.00
2018-04-29T19:00:48.507Z,2.80
2018-04-29T19:03:16.017Z,3.17
2018-04-29T19:05:46.457Z,3.10
2018-04-29T19:08:14.057Z,3.13
2018-04-29T19:10:41.588Z,3.10
2018-04-29T19:13:09.866Z,3.40
2018-04-29T19:15:38.284Z,2.83
2018-04-29T19:18:05.786Z,2.93
2018-04-29T19:20:34.071Z,2.93
2018-04-29T19:23:02.359Z,3.40
2018-04-29T19:25:29.911Z,4.33
2018-04-29T19:27:58.262Z,3.10
2018-04-29T19:30:26.549Z,2.97
2018-04-29T19:32:54.860Z,3.80
2018-04-29T19:35:22.385Z,3.03
2018-04-29T19:37:50.633Z,4.30
2018-04-29T19:40:18.137Z,3.27
2018-04-29T19:42:46.232Z,3.13
2018-04-29T19:45:13.719Z,3.07
2018-04-29T19:47:41.227Z,4.00
2018-04-29T19:50:08.759Z,4.00
2018-04-29T19:52:37.017Z,3.23
2018-04-29T19:55:04.521Z,4.30
2018-04-29T19:57:32.060Z,3.83
2018-04-29T19:59:59.612Z,3.80
2018-04-29T20:02:27.084Z,3.80
2018-04-29T20:04:54.692Z,4.10
2018-04-29T20:07:22.297Z,5.13
2018-04-29T20:09:49.796Z,4.70
2018-04-29T20:12:17.304Z,4.00
2018-04-29T20:14:44.786Z,3.50
2018-04-29T20:17:12.325Z,4.53
2018-04-29T20:19:39.876Z,4.17
2018-04-29T20:22:07.378Z,3.93
2018-04-29T20:24:34.858Z,3.30
2018-04-29T20:27:03.127Z,3.43
2018-04-29T20:29:30.641Z,3.70
2018-04-29T20:31:58.153Z,3.40
2018-04-29T20:34:26.446Z,4.30
2018-04-29T20:36:53.985Z,3.53
2018-04-29T20:39:22.246Z,4.47
2018-04-29T20:41:49.744Z,4.00
2018-04-29T20:44:17.282Z,4.13
2018-04-29T20:46:45.549Z,3.33
2018-04-29T20:49:13.811Z,3.93
2018-04-29T20:51:41.319Z,4.03
2018-04-29T20:54:08.827Z,4.07
2018-04-29T20:56:37.144Z,3.60
2018-04-29T20:59:04.642Z,3.93
2018-04-29T21:01:32.177Z,4.37
2018-04-29T21:03:59.685Z,4.27
2018-04-29T21:06:27.943Z,3.47
2018-04-29T21:08:56.234Z,4.77
2018-04-29T21:11:24.505Z,4.17
2018-04-29T21:13:52.772Z,4.37
2018-04-29T21:16:21.063Z,4.03
2018-04-29T21:18:48.546Z,3.90
2018-04-29T21:21:16.073Z,3.90
2018-04-29T21:23:44.344Z,3.23
2018-04-29T21:26:12.604Z,3.60
2018-04-29T21:28:40.114Z,3.43
2018-04-29T21:31:07.615Z,3.40
2018-04-29T21:33:35.113Z,3.50
2018-04-29T21:36:02.594Z,3.20
2018-04-29T21:38:30.100Z,4.17
2018-04-29T21:40:57.669Z,3.37
2018-04-29T21:43:25.219Z,3.63
2018-04-29T21:45:53.589Z,3.23
2018-04-29T21:48:21.842Z,3.00
2018-04-29T21:50:49.338Z,2.90
2018-04-29T21:53:16.823Z,3.37
2018-04-29T21:55:44.299Z,2.83
2018-04-29T21:58:11.896Z,2.20
2018-04-29T22:00:40.158Z,3.40
2018-04-29T22:03:08.446Z,2.57
2018-04-29T22:05:36.830Z,3.10
2018-04-29T22:08:04.385Z,2.90
2018-04-29T22:10:31.901Z,2.50
2018-04-29T22:13:02.289Z,2.53
2018-04-29T22:15:29.780Z,2.33
2018-04-29T22:17:57.387Z,2.23
2018-04-29T22:20:24.901Z,1.90
2018-04-29T22:22:52.392Z,2.07
2018-04-29T22:25:20.663Z,2.27
2018-04-29T22:27:49.044Z,2.10
2018-04-29T22:30:16.534Z,2.00
2018-04-29T22:32:44.040Z,2.13
2018-04-29T22:35:12.292Z,2.40
2018-04-29T22:37:39.790Z,2.30
2018-04-29T22:40:07.366Z,2.57
2018-04-29T22:42:34.885Z,1.83
2018-04-29T22:45:03.148Z,2.10
2018-04-29T22:47:30.726Z,2.30
2018-04-29T22:49:58.994Z,2.57
2018-04-29T22:52:27.268Z,2.60
2018-04-29T22:54:55.538Z,1.87
2018-04-29T22:57:23.835Z,2.10
2018-04-29T22:59:51.324Z,2.40
2018-04-29T23:02:18.836Z,2.60
2018-04-29T23:04:47.096Z,2.40
2018-04-29T23:07:14.606Z,2.30
2018-04-29T23:09:42.135Z,3.07
2018-04-29T23:12:09.688Z,2.77
2018-04-29T23:14:37.247Z,2.30
2018-04-29T23:17:04.729Z,2.73
2018-04-29T23:19:32.230Z,2.83
2018-04-29T23:21:59.818Z,2.00
2018-04-29T23:24:28.077Z,2.67
2018-04-29T23:26:56.325Z,2.70
2018-04-29T23:29:23.843Z,2.60
2018-04-29T23:31:51.345Z,2.33
2018-04-29T23:34:18.835Z,2.57
2018-04-29T23:36:47.211Z,2.73
2018-04-29T23:39:15.483Z,2.63
2018-04-29T23:41:43.759Z,3.00
2018-04-29T23:44:12.014Z,2.90
2018-04-29T23:46:39.536Z,2.70
2018-04-29T23:49:07.055Z,2.77
2018-04-29T23:51:34.537Z,2.30
2018-04-29T23:54:02.051Z,2.90
2018-04-29T23:56:30.316Z,1.60
2018-04-29T23:58:57.801Z,2.90
